createdAt,value
2023-02-12T00:00:58.045Z,48.40
2023-02-12T00:03:28.496Z,48.90
2023-02-12T00:06:03.691Z,48.80
2023-02-12T00:08:34.138Z,54.22
2023-02-12T00:11:13.039Z,70.47
2023-02-12T00:13:44.084Z,51.45
2023-02-12T00:16:15.733Z,55.30
2023-02-12T00:18:46.609Z,55.90
2023-02-12T00:21:18.983Z,68.80
2023-02-12T00:23:49.166Z,60.83
2023-02-12T00:26:20.950Z,62.05
2023-02-12T00:28:53.779Z,62.83
2023-02-12T00:31:26.690Z,66.82
2023-02-12T00:33:59.541Z,56.45
2023-02-12T00:36:31.350Z,60.15
2023-02-12T00:39:02.707Z,68.35
2023-02-12T00:41:33.622Z,64.22
2023-02-12T00:44:03.713Z,59.33
2023-02-12T00:46:33.900Z,61.53
2023-02-12T00:49:04.433Z,64.57
2023-02-12T00:51:34.918Z,69.43
2023-02-12T00:54:05.594Z,75.22
2023-02-12T00:56:35.686Z,80.00
2023-02-12T00:59:06.207Z,79.25
2023-02-12T01:01:38.392Z,81.15
2023-02-12T01:04:08.906Z,74.22
2023-02-12T01:06:39.114Z,76.72
2023-02-12T01:09:09.596Z,71.65
2023-02-12T01:11:40.421Z,72.32
2023-02-12T01:14:10.661Z,73.13
2023-02-12T01:16:42.145Z,60.90
2023-02-12T01:19:13.970Z,59.63
2023-02-12T01:21:44.293Z,61.97
2023-02-12T01:24:15.264Z,59.78
2023-02-12T01:26:45.750Z,57.88
2023-02-12T01:29:16.236Z,60.53
2023-02-12T01:31:46.501Z,55.63
2023-02-12T01:34:17.119Z,56.47
2023-02-12T01:36:47.899Z,53.17
2023-02-12T01:39:18.613Z,54.85
2023-02-12T01:41:49.061Z,54.70
2023-02-12T01:44:32.303Z,56.53
2023-02-12T01:47:03.754Z,55.70
2023-02-12T01:49:42.798Z,51.67
2023-02-12T01:52:18.865Z,52.30
2023-02-12T01:54:51.447Z,51.65
2023-02-12T01:57:22.529Z,52.30
2023-02-12T01:59:56.063Z,52.72
2023-02-12T02:02:26.865Z,50.53
2023-02-12T02:05:00.397Z,53.22
2023-02-12T02:07:31.261Z,51.72
2023-02-12T02:10:02.004Z,50.95
2023-02-12T02:12:53.017Z,53.55
2023-02-12T02:15:23.422Z,50.67
2023-02-12T02:18:13.291Z,51.17
2023-02-12T02:21:02.971Z,49.00
2023-02-12T02:23:53.392Z,49.67
2023-02-12T02:26:43.309Z,54.58
2023-02-12T02:29:32.983Z,54.25
2023-02-12T02:32:13.020Z,46.03
2023-02-12T02:35:03.506Z,45.03
2023-02-12T02:37:47.752Z,45.03
2023-02-12T02:40:22.638Z,43.83
2023-02-12T02:43:04.284Z,48.80
2023-02-12T02:45:40.996Z,48.47
2023-02-12T02:48:20.747Z,45.38
2023-02-12T02:50:53.243Z,44.25
2023-02-12T02:53:28.231Z,45.22
2023-02-12T02:55:59.583Z,43.42
2023-02-12T02:58:34.407Z,42.85
2023-02-12T03:01:10.330Z,46.80
2023-02-12T03:03:51.928Z,45.28
2023-02-12T03:06:41.817Z,47.17
2023-02-12T03:09:16.231Z,45.78
2023-02-12T03:11:47.580Z,42.88
2023-02-12T03:14:20.616Z,43.20
2023-02-12T03:17:10.323Z,41.13
2023-02-12T03:19:45.032Z,40.05
2023-02-12T03:22:17.011Z,45.40
2023-02-12T03:24:49.429Z,40.60
2023-02-12T03:27:22.959Z,42.25
2023-02-12T03:29:53.076Z,38.45
2023-02-12T03:32:43.416Z,37.80
2023-02-12T03:35:23.787Z,37.65
2023-02-12T03:38:13.652Z,38.63
2023-02-12T03:40:47.286Z,36.20
2023-02-12T03:43:23.624Z,36.90
2023-02-12T03:46:04.731Z,33.75
2023-02-12T03:48:44.309Z,35.40
2023-02-12T03:51:21.150Z,62.38
2023-02-12T03:53:52.340Z,33.03
2023-02-12T03:56:25.632Z,32.08
2023-02-12T03:58:56.212Z,31.15
2023-02-12T04:01:26.667Z,54.92
2023-02-12T04:03:58.317Z,31.95
2023-02-12T04:06:31.113Z,32.10
2023-02-12T04:09:04.879Z,31.52
2023-02-12T04:11:55.436Z,30.27
2023-02-12T04:14:48.304Z,30.08
2023-02-12T04:17:39.976Z,28.63
2023-02-12T04:20:15.674Z,31.33
2023-02-12T04:23:05.985Z,27.98
2023-02-12T04:25:50.438Z,27.45
2023-02-12T04:28:40.424Z,26.55
2023-02-12T04:31:30.218Z,27.48
2023-02-12T04:34:10.288Z,28.38
2023-02-12T04:36:44.488Z,27.27
2023-02-12T04:39:20.082Z,27.67
2023-02-12T04:41:50.280Z,28.02
2023-02-12T04:44:23.593Z,29.50
2023-02-12T04:46:54.619Z,29.63
2023-02-12T04:49:25.167Z,29.88
2023-02-12T04:51:55.643Z,29.55
2023-02-12T04:54:26.166Z,29.13
2023-02-12T04:56:56.685Z,29.35
2023-02-12T04:59:27.231Z,27.98
2023-02-12T05:01:58.321Z,27.33
2023-02-12T05:04:28.773Z,27.50
2023-02-12T05:06:59.266Z,28.27
2023-02-12T05:09:29.577Z,27.35
2023-02-12T05:11:59.754Z,28.33
2023-02-12T05:14:31.276Z,25.98
2023-02-12T05:17:02.370Z,27.08
2023-02-12T05:19:33.178Z,26.08
2023-02-12T05:22:03.852Z,23.88
2023-02-12T05:24:34.202Z,24.05
2023-02-12T05:27:04.905Z,23.73
2023-02-12T05:29:35.338Z,23.83
2023-02-12T05:32:05.812Z,24.63
2023-02-12T05:34:36.123Z,23.10
2023-02-12T05:37:06.438Z,22.35
2023-02-12T05:39:36.252Z,22.48
2023-02-12T05:42:06.668Z,20.50
2023-02-12T05:44:36.939Z,20.95
2023-02-12T05:47:07.611Z,19.95
2023-02-12T05:49:37.783Z,20.60
2023-02-12T05:52:08.140Z,19.70
2023-02-12T05:54:39.001Z,21.48
2023-02-12T05:57:09.867Z,19.95
2023-02-12T05:59:41.220Z,20.10
2023-02-12T06:02:11.581Z,19.05
2023-02-12T06:04:41.694Z,20.13
2023-02-12T06:07:12.042Z,20.05
2023-02-12T06:09:42.962Z,20.48
2023-02-12T06:12:13.489Z,19.35
2023-02-12T06:14:44.217Z,19.23
2023-02-12T06:17:14.743Z,18.88
2023-02-12T06:19:45.243Z,18.80
2023-02-12T06:22:15.876Z,17.80
2023-02-12T06:24:46.437Z,18.13
2023-02-12T06:27:16.792Z,17.92
2023-02-12T06:29:47.471Z,18.98
2023-02-12T06:32:18.147Z,18.67
2023-02-12T06:34:48.430Z,18.38
2023-02-12T06:37:18.728Z,19.40
2023-02-12T06:39:48.975Z,18.65
2023-02-12T06:42:19.691Z,21.00
2023-02-12T06:44:52.581Z,18.15
2023-02-12T06:47:23.510Z,18.27
2023-02-12T06:49:54.005Z,17.35
2023-02-12T06:52:24.355Z,17.83
2023-02-12T06:54:54.941Z,17.70
2023-02-12T06:57:25.376Z,17.63
2023-02-12T06:59:55.509Z,18.10
2023-02-12T07:02:25.964Z,18.05
2023-02-12T07:04:56.457Z,18.13
2023-02-12T07:07:26.846Z,15.27
2023-02-12T07:09:57.011Z,14.95
2023-02-12T07:12:27.335Z,16.67
2023-02-12T07:14:57.856Z,17.48
2023-02-12T07:17:28.287Z,17.38
2023-02-12T07:19:58.794Z,17.02
2023-02-12T07:22:29.015Z,14.85
2023-02-12T07:25:00.190Z,15.13
2023-02-12T07:27:30.977Z,15.18
2023-02-12T07:30:01.505Z,14.55
2023-02-12T07:32:31.659Z,15.05
2023-02-12T07:35:02.103Z,15.38
2023-02-12T07:37:33.150Z,14.40
2023-02-12T07:40:04.490Z,15.85
2023-02-12T07:42:34.994Z,16.17
2023-02-12T07:45:09.022Z,14.35
2023-02-12T07:47:40.285Z,13.95
2023-02-12T07:50:11.000Z,15.05
2023-02-12T07:52:41.231Z,16.23
2023-02-12T07:55:11.679Z,15.68
2023-02-12T07:57:41.903Z,15.02
2023-02-12T08:00:13.200Z,15.40
2023-02-12T08:02:43.495Z,14.05
2023-02-12T08:05:14.075Z,14.43
2023-02-12T08:07:44.492Z,14.15
2023-02-12T08:10:14.761Z,14.57
2023-02-12T08:12:45.542Z,14.18
2023-02-12T08:15:15.904Z,14.13
2023-02-12T08:17:46.177Z,13.65
2023-02-12T08:20:17.169Z,12.77
2023-02-12T08:22:47.671Z,12.85
2023-02-12T08:25:18.665Z,14.48
2023-02-12T08:27:48.876Z,14.98
2023-02-12T08:30:19.484Z,13.63
2023-02-12T08:32:52.112Z,13.63
2023-02-12T08:35:22.625Z,13.30
2023-02-12T08:37:54.104Z,13.02
2023-02-12T08:40:24.978Z,13.80
2023-02-12T08:42:55.977Z,13.07
2023-02-12T08:45:26.638Z,13.13
2023-02-12T08:47:57.876Z,12.85
2023-02-12T08:50:28.382Z,16.75
2023-02-12T08:52:59.058Z,20.42
2023-02-12T08:55:29.804Z,18.50
2023-02-12T08:58:00.051Z,22.13
2023-02-12T09:00:32.724Z,13.00
2023-02-12T09:03:03.242Z,13.13
2023-02-12T09:05:33.910Z,12.40
2023-02-12T09:08:04.100Z,12.82
2023-02-12T09:10:34.962Z,11.50
2023-02-12T09:13:05.272Z,11.50
2023-02-12T09:15:39.007Z,10.80
2023-02-12T09:18:10.519Z,11.80
2023-02-12T09:20:42.765Z,11.55
2023-02-12T09:23:16.267Z,12.18
2023-02-12T09:25:47.214Z,11.73
2023-02-12T09:28:17.636Z,11.88
2023-02-12T09:30:48.430Z,12.20
2023-02-12T09:33:18.630Z,11.50
2023-02-12T09:35:48.699Z,11.48
2023-02-12T09:38:19.745Z,12.00
2023-02-12T09:41:09.698Z,11.52
2023-02-12T09:43:51.337Z,12.27
2023-02-12T09:46:25.757Z,11.55
2023-02-12T09:49:15.882Z,11.25
2023-02-12T09:51:50.990Z,11.88
2023-02-12T09:54:23.135Z,10.93
2023-02-12T09:56:58.088Z,10.95
2023-02-12T09:59:35.243Z,12.60
2023-02-12T10:02:05.291Z,11.90
2023-02-12T10:04:35.664Z,12.85
2023-02-12T10:07:14.531Z,12.27
2023-02-12T10:09:59.056Z,11.73
2023-02-12T10:12:41.793Z,10.98
2023-02-12T10:15:17.502Z,11.27
2023-02-12T10:17:53.857Z,11.43
2023-02-12T10:20:41.668Z,11.25
2023-02-12T10:23:32.727Z,11.00
2023-02-12T10:26:07.708Z,12.20
2023-02-12T10:28:40.742Z,12.75
2023-02-12T10:31:16.363Z,13.10
2023-02-12T10:33:51.672Z,13.80
2023-02-12T10:36:30.614Z,20.50
2023-02-12T10:39:15.833Z,24.35
2023-02-12T10:41:47.601Z,24.67
2023-02-12T10:44:17.982Z,20.23
2023-02-12T10:46:48.509Z,14.80
2023-02-12T10:49:19.765Z,13.15
2023-02-12T10:52:09.846Z,13.68
2023-02-12T10:54:47.532Z,13.27
2023-02-12T10:57:23.289Z,13.77
2023-02-12T10:59:56.052Z,13.60
2023-02-12T11:02:28.000Z,16.23
2023-02-12T11:04:59.732Z,13.48
2023-02-12T11:07:30.745Z,14.07
2023-02-12T11:10:01.532Z,14.57
2023-02-12T11:12:34.290Z,14.38
2023-02-12T11:15:09.542Z,14.98
2023-02-12T11:17:41.348Z,13.80
2023-02-12T11:20:26.884Z,15.05
2023-02-12T11:23:04.560Z,15.25
2023-02-12T11:25:37.604Z,15.32
2023-02-12T11:28:21.763Z,17.70
2023-02-12T11:30:59.605Z,17.92
2023-02-12T11:33:47.825Z,19.80
2023-02-12T11:36:20.884Z,17.85
2023-02-12T11:38:53.102Z,18.10
2023-02-12T11:41:36.079Z,18.27
2023-02-12T11:44:25.878Z,19.75
2023-02-12T11:47:05.371Z,20.50
2023-02-12T11:49:37.559Z,20.13
2023-02-12T11:52:09.280Z,21.25
2023-02-12T11:54:49.205Z,21.98
2023-02-12T11:57:38.814Z,24.08
2023-02-12T12:00:29.838Z,27.90
2023-02-12T12:03:22.078Z,28.15
2023-02-12T12:05:58.799Z,29.45
2023-02-12T12:08:31.534Z,27.75
2023-02-12T12:11:07.020Z,72.32
2023-02-12T12:13:41.296Z,30.80
2023-02-12T12:16:38.676Z,32.00
2023-02-12T12:19:33.407Z,31.48
2023-02-12T12:22:07.161Z,31.50
2023-02-12T12:24:50.817Z,32.30
2023-02-12T12:27:44.535Z,32.33
2023-02-12T12:30:35.543Z,32.70
2023-02-12T12:33:08.420Z,32.78
2023-02-12T12:35:48.298Z,33.95
2023-02-12T12:38:22.966Z,36.28
2023-02-12T12:41:12.919Z,42.42
2023-02-12T12:44:02.891Z,37.13
2023-02-12T12:46:45.133Z,34.95
2023-02-12T12:49:19.914Z,35.17
2023-02-12T12:52:10.031Z,36.90
2023-02-12T12:55:00.267Z,36.95
2023-02-12T12:57:42.294Z,34.10
2023-02-12T13:00:24.307Z,35.92
2023-02-12T13:03:14.172Z,36.47
2023-02-12T13:06:03.828Z,37.33
2023-02-12T13:08:53.689Z,39.50
2023-02-12T13:11:44.070Z,43.72
2023-02-12T13:14:34.257Z,43.83
2023-02-12T13:17:16.002Z,45.75
2023-02-12T13:19:55.812Z,50.78
2023-02-12T13:22:31.845Z,52.22
2023-02-12T13:25:09.617Z,43.85
2023-02-12T13:27:45.033Z,40.75
2023-02-12T13:30:28.961Z,48.17
2023-02-12T13:33:08.971Z,44.20
2023-02-12T13:35:41.499Z,43.30
2023-02-12T13:38:13.825Z,38.67
2023-02-12T13:40:44.525Z,37.35
2023-02-12T13:43:29.656Z,37.25
2023-02-12T13:46:09.491Z,38.13
2023-02-12T13:48:52.470Z,37.60
2023-02-12T13:51:42.164Z,35.53
2023-02-12T13:54:32.304Z,36.10
2023-02-12T13:57:04.274Z,36.50
2023-02-12T13:59:42.757Z,36.63
2023-02-12T14:02:18.882Z,37.75
2023-02-12T14:05:01.485Z,37.92
2023-02-12T14:07:51.182Z,38.28
2023-02-12T14:10:26.523Z,38.47
2023-02-12T14:12:58.905Z,42.55
2023-02-12T14:15:49.232Z,237.60
2023-02-12T14:18:31.017Z,39.22
2023-02-12T14:21:20.837Z,39.13
2023-02-12T14:23:52.637Z,36.65
2023-02-12T14:26:25.111Z,38.97
2023-02-12T14:29:02.877Z,38.83
2023-02-12T14:31:38.138Z,40.55
2023-02-12T14:34:28.277Z,38.95
2023-02-12T14:37:19.356Z,40.53
2023-02-12T14:39:49.796Z,41.65
2023-02-12T14:42:39.784Z,45.17
2023-02-12T14:45:29.533Z,47.45
2023-02-12T14:48:00.110Z,65.20
2023-02-12T14:50:38.511Z,77.68
2023-02-12T14:53:28.863Z,70.90
2023-02-12T14:55:59.953Z,59.28
2023-02-12T14:58:33.967Z,53.38
2023-02-12T15:01:05.708Z,50.20
2023-02-12T15:03:44.685Z,46.25
2023-02-12T15:06:23.412Z,50.70
2023-02-12T15:08:57.486Z,56.72
2023-02-12T15:11:36.988Z,52.22
2023-02-12T15:14:26.653Z,45.70
2023-02-12T15:17:16.539Z,37.35
2023-02-12T15:19:52.191Z,42.85
2023-02-12T15:22:27.260Z,39.63
2023-02-12T15:25:17.901Z,36.55
2023-02-12T15:27:49.865Z,33.90
2023-02-12T15:30:26.302Z,35.25
2023-02-12T15:32:59.128Z,44.17
2023-02-12T15:35:31.763Z,38.58
2023-02-12T15:38:02.731Z,37.42
2023-02-12T15:40:33.500Z,37.95
2023-02-12T15:43:05.214Z,35.15
2023-02-12T15:45:36.903Z,35.58
2023-02-12T15:48:14.954Z,36.20
2023-02-12T15:51:05.412Z,35.40
2023-02-12T15:53:36.493Z,36.05
2023-02-12T15:56:07.032Z,36.63
2023-02-12T15:58:45.949Z,36.08
2023-02-12T16:01:19.850Z,64.72
2023-02-12T16:03:55.277Z,35.42
2023-02-12T16:06:26.029Z,34.50
2023-02-12T16:09:07.792Z,34.08
2023-02-12T16:11:38.776Z,35.17
2023-02-12T16:14:11.611Z,34.58
2023-02-12T16:16:46.749Z,33.00
2023-02-12T16:19:21.250Z,32.97
2023-02-12T16:21:54.225Z,34.80
2023-02-12T16:24:28.429Z,33.50
2023-02-12T16:26:59.324Z,34.08
2023-02-12T16:29:30.130Z,33.55
2023-02-12T16:32:03.638Z,34.63
2023-02-12T16:34:41.248Z,35.55
2023-02-12T16:37:32.200Z,36.47
2023-02-12T16:40:12.159Z,39.30
2023-02-12T16:42:58.490Z,140.00
2023-02-12T16:45:43.760Z,44.00
2023-02-12T16:48:32.723Z,40.70
2023-02-12T16:51:07.678Z,41.08
2023-02-12T16:53:45.004Z,40.05
2023-02-12T16:56:20.201Z,40.05
2023-02-12T16:58:52.797Z,38.35
2023-02-12T17:01:24.873Z,37.47
2023-02-12T17:03:56.205Z,37.10
2023-02-12T17:06:28.668Z,37.42
2023-02-12T17:08:59.738Z,46.10
2023-02-12T17:11:30.581Z,59.25
2023-02-12T17:14:01.104Z,58.80
2023-02-12T17:16:32.512Z,36.40
2023-02-12T17:19:04.147Z,36.70
2023-02-12T17:21:39.619Z,36.05
2023-02-12T17:24:16.418Z,35.83
2023-02-12T17:26:46.917Z,34.15
2023-02-12T17:29:17.658Z,36.38
2023-02-12T17:31:49.186Z,36.85
2023-02-12T17:34:19.653Z,37.05
2023-02-12T17:36:50.009Z,36.53
2023-02-12T17:39:20.670Z,38.10
2023-02-12T17:41:53.037Z,37.15
2023-02-12T17:44:23.124Z,39.05
2023-02-12T17:46:53.556Z,39.47
2023-02-12T17:49:24.309Z,39.05
2023-02-12T17:51:54.842Z,37.53
2023-02-12T17:54:24.699Z,39.40
2023-02-12T17:56:54.837Z,37.75
2023-02-12T17:59:25.085Z,36.55
2023-02-12T18:01:55.468Z,37.05
2023-02-12T18:04:26.100Z,36.60
2023-02-12T18:06:57.108Z,36.20
2023-02-12T18:09:27.592Z,38.95
2023-02-12T18:11:58.222Z,40.47
2023-02-12T18:14:29.102Z,40.28
2023-02-12T18:17:00.251Z,38.70
2023-02-12T18:19:31.061Z,39.45
2023-02-12T18:22:01.477Z,38.40
2023-02-12T18:24:33.235Z,39.60
2023-02-12T18:27:04.232Z,39.80
2023-02-12T18:29:34.718Z,40.08
2023-02-12T18:32:05.468Z,40.58
2023-02-12T18:34:36.264Z,41.63
2023-02-12T18:37:06.690Z,42.20
2023-02-12T18:39:37.026Z,41.10
2023-02-12T18:42:07.456Z,41.75
2023-02-12T18:44:38.566Z,44.25
2023-02-12T18:47:08.813Z,46.53
2023-02-12T18:49:39.151Z,43.55
2023-02-12T18:52:09.196Z,45.75
2023-02-12T18:54:39.710Z,45.75
2023-02-12T18:57:09.724Z,45.30
2023-02-12T18:59:39.660Z,44.10
2023-02-12T19:02:10.425Z,43.05
2023-02-12T19:04:42.472Z,45.00
2023-02-12T19:07:12.592Z,43.97
2023-02-12T19:09:43.031Z,45.70
2023-02-12T19:12:13.533Z,43.08
2023-02-12T19:14:44.322Z,43.38
2023-02-12T19:17:14.477Z,44.30
2023-02-12T19:19:45.240Z,42.55
2023-02-12T19:22:15.633Z,44.53
2023-02-12T19:24:47.188Z,49.22
2023-02-12T19:27:17.517Z,47.00
2023-02-12T19:29:47.521Z,44.42
2023-02-12T19:32:18.030Z,44.58
2023-02-12T19:34:48.046Z,45.35
2023-02-12T19:37:18.150Z,47.08
2023-02-12T19:39:48.701Z,46.33
2023-02-12T19:42:19.408Z,47.20
2023-02-12T19:44:49.824Z,47.90
2023-02-12T19:47:19.883Z,45.85
2023-02-12T19:49:49.959Z,44.80
2023-02-12T19:52:20.127Z,43.88
2023-02-12T19:54:50.183Z,42.22
2023-02-12T19:57:20.470Z,43.67
2023-02-12T19:59:50.860Z,43.83
2023-02-12T20:02:21.320Z,45.10
2023-02-12T20:04:51.438Z,46.13
2023-02-12T20:07:21.516Z,45.50
2023-02-12T20:09:53.762Z,44.60
2023-02-12T20:12:24.554Z,44.05
2023-02-12T20:14:57.313Z,43.88
2023-02-12T20:17:27.475Z,46.25
2023-02-12T20:19:57.906Z,47.20
2023-02-12T20:22:28.469Z,47.72
2023-02-12T20:24:58.877Z,46.10
2023-02-12T20:27:29.033Z,44.20
2023-02-12T20:29:59.655Z,43.15
2023-02-12T20:32:30.290Z,44.13
2023-02-12T20:35:01.033Z,44.70
2023-02-12T20:37:31.308Z,44.03
2023-02-12T20:40:02.054Z,45.03
2023-02-12T20:42:32.156Z,46.70
2023-02-12T20:45:02.636Z,47.47
2023-02-12T20:47:33.113Z,46.17
2023-02-12T20:50:03.811Z,44.15
2023-02-12T20:52:34.435Z,43.10
2023-02-12T20:55:05.118Z,44.38
2023-02-12T20:57:36.269Z,44.83
2023-02-12T21:00:07.165Z,43.53
2023-02-12T21:02:38.257Z,45.90
2023-02-12T21:05:08.756Z,48.05
2023-02-12T21:07:39.060Z,49.30
2023-02-12T21:10:10.123Z,49.20
2023-02-12T21:12:40.620Z,48.28
2023-02-12T21:15:11.783Z,48.20
2023-02-12T21:17:42.109Z,46.53
2023-02-12T21:20:12.485Z,45.15
2023-02-12T21:22:42.678Z,47.33
2023-02-12T21:25:13.091Z,47.97
2023-02-12T21:27:43.575Z,48.17
2023-02-12T21:30:14.069Z,46.22
2023-02-12T21:32:44.195Z,45.10
2023-02-12T21:35:14.689Z,46.58
2023-02-12T21:37:45.108Z,47.15
2023-02-12T21:40:15.465Z,47.08
2023-02-12T21:42:45.516Z,47.72
2023-02-12T21:45:15.961Z,47.33
2023-02-12T21:47:46.034Z,48.15
2023-02-12T21:50:16.460Z,45.70
2023-02-12T21:52:46.866Z,47.65
2023-02-12T21:55:17.008Z,47.38
2023-02-12T21:57:48.765Z,46.17
2023-02-12T22:00:19.236Z,46.67
2023-02-12T22:02:49.657Z,44.90
2023-02-12T22:05:20.227Z,45.95
2023-02-12T22:07:53.990Z,45.30
2023-02-12T22:10:24.540Z,48.53
2023-02-12T22:12:55.015Z,50.83
2023-02-12T22:15:25.287Z,49.22
2023-02-12T22:17:55.844Z,48.90
2023-02-12T22:20:26.298Z,47.88
2023-02-12T22:22:56.479Z,45.88
2023-02-12T22:25:26.957Z,48.03
2023-02-12T22:27:57.545Z,47.28
2023-02-12T22:30:27.992Z,48.25
2023-02-12T22:32:58.966Z,47.38
2023-02-12T22:35:29.784Z,48.75
2023-02-12T22:38:00.222Z,49.22
2023-02-12T22:40:31.143Z,48.45
2023-02-12T22:43:01.812Z,51.05
2023-02-12T22:45:32.276Z,52.25
2023-02-12T22:48:02.415Z,51.35
2023-02-12T22:50:32.591Z,50.22
2023-02-12T22:53:03.081Z,52.35
2023-02-12T22:55:33.521Z,54.58
2023-02-12T22:58:04.009Z,57.55
2023-02-12T23:00:34.510Z,56.63
2023-02-12T23:03:05.053Z,57.90
2023-02-12T23:05:38.713Z,54.05
2023-02-12T23:08:08.967Z,54.80
2023-02-12T23:10:39.770Z,52.10
2023-02-12T23:13:10.564Z,52.55
2023-02-12T23:15:43.908Z,49.95
2023-02-12T23:18:14.300Z,56.17
2023-02-12T23:20:44.482Z,64.88
2023-02-12T23:23:14.528Z,60.53
2023-02-12T23:25:45.071Z,80.25
2023-02-12T23:28:15.500Z,64.65
2023-02-12T23:30:45.843Z,54.67
2023-02-12T23:33:17.031Z,54.88
2023-02-12T23:35:47.761Z,51.22
2023-02-12T23:38:18.649Z,49.42
2023-02-12T23:40:50.027Z,50.60
2023-02-12T23:43:20.802Z,52.70
2023-02-12T23:45:51.152Z,49.40
2023-02-12T23:48:21.437Z,57.67
2023-02-12T23:50:51.651Z,61.30
2023-02-12T23:53:21.990Z,56.85
2023-02-12T23:55:52.908Z,71.03
2023-02-12T23:58:22.975Z,58.70
